createdAt,value
2024-05-09T00:00:30.555Z,0.00
2024-05-09T00:01:24.066Z,0.00
2024-05-09T00:02:24.183Z,0.00
2024-05-09T00:03:24.048Z,0.00
2024-05-09T00:04:23.934Z,0.00
2024-05-09T00:05:23.974Z,0.00
2024-05-09T00:06:23.846Z,0.00
2024-05-09T00:07:23.802Z,0.00
2024-05-09T00:08:23.811Z,0.00
2024-05-09T00:09:23.723Z,0.00
2024-05-09T00:10:32.639Z,0.00
2024-05-09T00:11:23.863Z,0.00
2024-05-09T00:12:23.675Z,0.00
2024-05-09T00:13:23.554Z,0.00
2024-05-09T00:14:23.567Z,0.00
2024-05-09T00:15:23.510Z,0.00
2024-05-09T00:16:23.434Z,0.00
2024-05-09T00:17:23.579Z,0.00
2024-05-09T00:18:23.595Z,0.00
2024-05-09T00:19:23.394Z,0.00
2024-05-09T00:20:28.580Z,0.00
2024-05-09T00:21:23.244Z,0.00
2024-05-09T00:22:23.185Z,0.00
2024-05-09T00:23:23.235Z,0.00
2024-05-09T00:24:23.101Z,0.00
2024-05-09T00:25:23.070Z,0.00
2024-05-09T00:26:23.142Z,0.00
2024-05-09T00:27:23.003Z,0.00
2024-05-09T00:28:22.941Z,0.00
2024-05-09T00:29:22.921Z,0.00
2024-05-09T00:30:31.609Z,0.00
2024-05-09T00:31:22.817Z,0.00
2024-05-09T00:32:22.916Z,0.00
2024-05-09T00:33:22.963Z,0.00
2024-05-09T00:34:22.815Z,0.00
2024-05-09T00:35:22.712Z,0.00
2024-05-09T00:36:22.600Z,0.00
2024-05-09T00:37:22.574Z,0.00
2024-05-09T00:38:22.569Z,0.00
2024-05-09T00:39:22.517Z,0.00
2024-05-09T00:40:30.660Z,0.00
2024-05-09T00:41:22.445Z,0.00
2024-05-09T00:42:22.358Z,0.00
2024-05-09T00:43:22.320Z,0.00
2024-05-09T00:44:22.388Z,0.00
2024-05-09T00:45:22.263Z,0.00
2024-05-09T00:46:22.207Z,0.00
2024-05-09T00:47:22.318Z,0.00
2024-05-09T00:48:22.389Z,0.00
2024-05-09T00:49:22.121Z,0.00
2024-05-09T00:50:29.453Z,0.00
2024-05-09T00:51:22.046Z,0.00
2024-05-09T00:52:21.944Z,0.00
2024-05-09T00:53:21.968Z,0.00
2024-05-09T00:54:21.869Z,0.00
2024-05-09T00:55:21.829Z,0.00
2024-05-09T00:56:21.907Z,0.00
2024-05-09T00:57:21.742Z,0.00
2024-05-09T00:58:21.706Z,0.00
2024-05-09T00:59:21.723Z,0.00
2024-05-09T01:00:27.385Z,0.00
2024-05-09T01:01:21.615Z,0.00
2024-05-09T01:02:21.625Z,0.00
2024-05-09T01:03:21.866Z,0.00
2024-05-09T01:04:21.497Z,0.00
2024-05-09T01:05:21.445Z,0.00
2024-05-09T01:06:21.385Z,0.00
2024-05-09T01:07:21.356Z,0.00
2024-05-09T01:08:21.457Z,0.00
2024-05-09T01:09:21.255Z,0.00
2024-05-09T01:10:27.746Z,0.00
2024-05-09T01:11:21.257Z,0.00
2024-05-09T01:12:21.235Z,0.00
2024-05-09T01:13:21.104Z,0.00
2024-05-09T01:14:21.149Z,0.00
2024-05-09T01:15:21.004Z,0.00
2024-05-09T01:16:20.953Z,0.00
2024-05-09T01:17:21.013Z,0.00
2024-05-09T01:18:21.058Z,0.00
2024-05-09T01:19:20.882Z,0.00
2024-05-09T01:20:31.743Z,0.00
2024-05-09T01:21:20.799Z,0.00
2024-05-09T01:22:20.716Z,0.00
2024-05-09T01:23:20.720Z,0.00
2024-05-09T01:24:20.637Z,0.00
2024-05-09T01:25:20.582Z,0.00
2024-05-09T01:26:20.576Z,0.00
2024-05-09T01:27:20.519Z,0.00
2024-05-09T01:28:20.469Z,0.00
2024-05-09T01:29:20.495Z,0.00
2024-05-09T01:30:24.559Z,0.00
2024-05-09T01:31:20.334Z,0.00
2024-05-09T01:32:20.386Z,0.00
2024-05-09T01:33:20.465Z,0.00
2024-05-09T01:34:20.324Z,0.00
2024-05-09T01:35:20.185Z,0.00
2024-05-09T01:36:20.156Z,0.00
2024-05-09T01:37:20.087Z,0.00
2024-05-09T01:38:20.182Z,0.00
2024-05-09T01:39:20.031Z,0.00
2024-05-09T01:40:25.339Z,0.00
2024-05-09T01:41:19.977Z,0.00
2024-05-09T01:42:19.910Z,0.00
2024-05-09T01:43:19.850Z,0.00
2024-05-09T01:44:19.895Z,0.00
2024-05-09T01:45:19.755Z,0.00
2024-05-09T01:46:19.712Z,0.00
2024-05-09T01:47:19.753Z,0.00
2024-05-09T01:48:19.806Z,0.00
2024-05-09T01:49:19.736Z,0.00
2024-05-09T01:50:28.949Z,0.00
2024-05-09T01:51:19.573Z,0.00
2024-05-09T01:52:19.475Z,0.00
2024-05-09T01:53:19.450Z,0.00
2024-05-09T01:54:19.426Z,0.00
2024-05-09T01:55:19.343Z,0.00
2024-05-09T01:56:19.340Z,0.00
2024-05-09T01:57:19.257Z,0.00
2024-05-09T01:58:19.215Z,0.00
2024-05-09T01:59:19.226Z,0.00
2024-05-09T02:00:30.044Z,0.00
2024-05-09T02:01:19.116Z,0.00
2024-05-09T02:02:19.234Z,0.00
2024-05-09T02:03:19.282Z,0.00
2024-05-09T02:04:19.213Z,0.00
2024-05-09T02:05:19.160Z,0.00
2024-05-09T02:06:18.900Z,0.00
2024-05-09T02:07:18.851Z,0.00
2024-05-09T02:08:19.396Z,0.00
2024-05-09T02:09:18.757Z,0.00
2024-05-09T02:10:25.961Z,0.00
2024-05-09T02:11:18.785Z,0.00
2024-05-09T02:12:18.804Z,0.00
2024-05-09T02:13:18.697Z,0.00
2024-05-09T02:14:18.643Z,0.00
2024-05-09T02:15:18.526Z,0.00
2024-05-09T02:16:18.470Z,0.00
2024-05-09T02:17:18.572Z,0.00
2024-05-09T02:18:18.470Z,0.00
2024-05-09T02:19:18.548Z,0.00
2024-05-09T02:20:26.776Z,0.00
2024-05-09T02:21:18.265Z,0.00
2024-05-09T02:22:18.218Z,0.00
2024-05-09T02:23:18.308Z,0.00
2024-05-09T02:24:18.135Z,0.00
2024-05-09T02:25:19.093Z,0.00
2024-05-09T02:26:18.120Z,0.00
2024-05-09T02:27:18.004Z,0.00
2024-05-09T02:28:17.972Z,0.00
2024-05-09T02:29:17.973Z,0.00
2024-05-09T02:30:25.890Z,0.00
2024-05-09T02:31:25.387Z,0.00
2024-05-09T02:32:17.944Z,0.00
2024-05-09T02:33:17.917Z,0.00
2024-05-09T02:34:25.905Z,0.00
2024-05-09T02:35:26.880Z,0.00
2024-05-09T02:36:25.804Z,0.00
2024-05-09T02:37:25.865Z,0.00
2024-05-09T02:38:26.424Z,0.00
2024-05-09T02:39:25.663Z,0.00
2024-05-09T02:40:35.129Z,0.00
2024-05-09T02:41:17.468Z,0.00
2024-05-09T02:42:17.401Z,0.00
2024-05-09T02:43:17.336Z,0.00
2024-05-09T02:44:17.370Z,0.00
2024-05-09T02:45:17.283Z,0.00
2024-05-09T02:46:17.211Z,0.00
2024-05-09T02:47:17.230Z,0.00
2024-05-09T02:48:17.230Z,0.00
2024-05-09T02:49:17.277Z,0.00
2024-05-09T02:50:25.982Z,0.00
2024-05-09T02:51:17.052Z,0.00
2024-05-09T02:52:16.976Z,0.00
2024-05-09T02:53:16.919Z,0.00
2024-05-09T02:54:16.876Z,0.00
2024-05-09T02:55:16.834Z,0.00
2024-05-09T02:56:16.831Z,0.00
2024-05-09T02:57:16.748Z,0.00
2024-05-09T02:58:16.703Z,0.00
2024-05-09T02:59:16.685Z,0.00
2024-05-09T03:00:22.763Z,0.00
2024-05-09T03:01:16.594Z,0.00
2024-05-09T03:02:16.612Z,0.00
2024-05-09T03:03:16.641Z,0.00
2024-05-09T03:04:16.618Z,0.00
2024-05-09T03:05:16.528Z,0.00
2024-05-09T03:06:16.368Z,0.00
2024-05-09T03:07:19.072Z,0.00
2024-05-09T03:08:16.347Z,0.00
2024-05-09T03:09:16.255Z,0.00
2024-05-09T03:10:22.330Z,0.00
2024-05-09T03:11:16.260Z,4.00
2024-05-09T03:12:16.172Z,4.00
2024-05-09T03:13:16.519Z,0.00
2024-05-09T03:14:16.095Z,0.00
2024-05-09T03:15:16.014Z,4.00
2024-05-09T03:16:15.953Z,4.00
2024-05-09T03:17:15.928Z,4.00
2024-05-09T03:18:16.077Z,8.00
2024-05-09T03:19:16.036Z,4.00
2024-05-09T03:20:23.230Z,4.00
2024-05-09T03:21:15.789Z,8.00
2024-05-09T03:22:15.703Z,12.00
2024-05-09T03:23:15.969Z,12.00
2024-05-09T03:24:15.651Z,12.00
2024-05-09T03:25:15.577Z,12.00
2024-05-09T03:26:15.601Z,12.00
2024-05-09T03:27:15.492Z,20.00
2024-05-09T03:28:15.446Z,20.00
2024-05-09T03:29:15.500Z,24.00
2024-05-09T03:30:28.877Z,28.00
2024-05-09T03:31:15.324Z,32.00
2024-05-09T03:32:15.368Z,36.00
2024-05-09T03:33:16.092Z,40.00
2024-05-09T03:34:15.223Z,48.00
2024-05-09T03:35:15.193Z,52.00
2024-05-09T03:36:15.132Z,60.00
2024-05-09T03:37:15.084Z,68.00
2024-05-09T03:38:15.430Z,76.00
2024-05-09T03:39:15.007Z,84.00
2024-05-09T03:40:20.848Z,100.00
2024-05-09T03:41:14.947Z,112.00
2024-05-09T03:42:14.877Z,124.00
2024-05-09T03:43:14.824Z,136.00
2024-05-09T03:44:14.803Z,152.00
2024-05-09T03:45:14.738Z,172.00
2024-05-09T03:46:14.695Z,188.00
2024-05-09T03:47:14.810Z,204.00
2024-05-09T03:48:14.786Z,224.00
2024-05-09T03:49:14.683Z,248.00
2024-05-09T03:50:22.021Z,268.00
2024-05-09T03:51:14.534Z,296.00
2024-05-09T03:52:14.443Z,320.00
2024-05-09T03:53:14.608Z,340.00
2024-05-09T03:54:14.385Z,372.00
2024-05-09T03:55:14.325Z,400.00
2024-05-09T03:56:14.314Z,432.00
2024-05-09T03:57:14.234Z,460.00
2024-05-09T03:58:14.188Z,492.00
2024-05-09T03:59:14.239Z,528.00
2024-05-09T04:00:18.294Z,568.00
2024-05-09T04:01:14.108Z,604.00
2024-05-09T04:02:14.129Z,644.00
2024-05-09T04:03:14.188Z,680.00
2024-05-09T04:04:14.104Z,724.00
2024-05-09T04:05:14.003Z,768.00
2024-05-09T04:06:13.867Z,812.00
2024-05-09T04:07:13.818Z,856.00
2024-05-09T04:08:13.839Z,904.00
2024-05-09T04:09:13.735Z,956.00
2024-05-09T04:10:21.212Z,1008.00
2024-05-09T04:11:13.728Z,1068.00
2024-05-09T04:12:13.761Z,1120.00
2024-05-09T04:13:13.571Z,1176.00
2024-05-09T04:14:13.683Z,1236.00
2024-05-09T04:15:13.731Z,1296.00
2024-05-09T04:16:13.450Z,1356.00
2024-05-09T04:17:13.437Z,1424.00
2024-05-09T04:18:13.446Z,1488.00
2024-05-09T04:19:13.371Z,1552.00
2024-05-09T04:20:24.160Z,1616.00
2024-05-09T04:21:13.268Z,1676.00
2024-05-09T04:22:13.192Z,1740.00
2024-05-09T04:23:13.868Z,1816.00
2024-05-09T04:24:13.124Z,1888.00
2024-05-09T04:25:13.062Z,1956.00
2024-05-09T04:26:13.087Z,2032.00
2024-05-09T04:27:12.994Z,2104.00
2024-05-09T04:28:12.953Z,2168.00
2024-05-09T04:29:12.907Z,2236.00
2024-05-09T04:30:21.688Z,2304.00
2024-05-09T04:31:12.814Z,2372.00
2024-05-09T04:32:12.865Z,2432.00
2024-05-09T04:33:14.347Z,2492.00
2024-05-09T04:34:13.128Z,2568.00
2024-05-09T04:35:12.795Z,2656.00
2024-05-09T04:36:12.779Z,2740.00
2024-05-09T04:37:12.568Z,2836.00
2024-05-09T04:38:12.685Z,2932.00
2024-05-09T04:39:12.517Z,3032.00
2024-05-09T04:40:23.681Z,3140.00
2024-05-09T04:41:12.447Z,3240.00
2024-05-09T04:42:12.366Z,3328.00
2024-05-09T04:43:12.315Z,3464.00
2024-05-09T04:44:12.337Z,3640.00
2024-05-09T04:45:12.229Z,3784.00
2024-05-09T04:46:12.226Z,3908.00
2024-05-09T04:47:12.263Z,4020.00
2024-05-09T04:48:12.326Z,4116.00
2024-05-09T04:49:12.162Z,4188.00
2024-05-09T04:50:17.695Z,4312.00
2024-05-09T04:51:12.032Z,4456.00
2024-05-09T04:52:11.953Z,4600.00
2024-05-09T04:53:11.922Z,4888.00
2024-05-09T04:54:22.199Z,5352.00
2024-05-09T04:55:11.823Z,5768.00
2024-05-09T04:56:11.837Z,6020.00
2024-05-09T04:57:11.754Z,6208.00
2024-05-09T04:58:11.792Z,6392.00
2024-05-09T04:59:11.703Z,6508.00
2024-05-09T05:00:14.809Z,6504.00
2024-05-09T05:01:11.598Z,6692.00
2024-05-09T05:02:11.609Z,6968.00
2024-05-09T05:03:13.980Z,7252.00
2024-05-09T05:04:11.512Z,7396.00
2024-05-09T05:05:12.137Z,7536.00
2024-05-09T05:06:11.399Z,7704.00
2024-05-09T05:07:11.330Z,7832.00
2024-05-09T05:08:11.369Z,7912.00
2024-05-09T05:09:11.253Z,8036.00
2024-05-09T05:10:15.064Z,8264.00
2024-05-09T05:11:11.219Z,8460.00
2024-05-09T05:12:11.222Z,8684.00
2024-05-09T05:13:11.113Z,8996.00
2024-05-09T05:14:11.076Z,9332.00
2024-05-09T05:15:11.030Z,9548.00
2024-05-09T05:16:10.978Z,9720.00
2024-05-09T05:17:10.968Z,9896.00
2024-05-09T05:18:11.116Z,10084.00
2024-05-09T05:19:13.408Z,10244.00
2024-05-09T05:20:15.209Z,10440.00
2024-05-09T05:21:10.847Z,10524.00
2024-05-09T05:22:10.747Z,10612.00
2024-05-09T05:23:10.793Z,10828.00
2024-05-09T05:24:10.673Z,11120.00
2024-05-09T05:25:10.643Z,11152.00
2024-05-09T05:26:10.619Z,11196.00
2024-05-09T05:27:10.567Z,11484.00
2024-05-09T05:28:10.680Z,11536.00
2024-05-09T05:29:10.528Z,11956.00
2024-05-09T05:30:17.548Z,12980.00
2024-05-09T05:31:10.562Z,13580.00
2024-05-09T05:32:10.445Z,13960.00
2024-05-09T05:33:10.464Z,14780.00
2024-05-09T05:34:10.316Z,15584.00
2024-05-09T05:35:10.309Z,16320.00
2024-05-09T05:36:10.242Z,17120.00
2024-05-09T05:37:10.192Z,17920.00
2024-05-09T05:38:10.400Z,18720.00
2024-05-09T05:39:10.111Z,19392.00
2024-05-09T05:40:14.595Z,19712.00
2024-05-09T05:41:10.050Z,19904.00
2024-05-09T05:42:10.009Z,20416.00
2024-05-09T05:43:10.525Z,20800.00
2024-05-09T05:44:09.966Z,20768.00
2024-05-09T05:45:10.041Z,20512.00
2024-05-09T05:46:09.859Z,20160.00
2024-05-09T05:47:09.948Z,19936.00
2024-05-09T05:48:10.052Z,19680.00
2024-05-09T05:49:09.965Z,19232.00
2024-05-09T05:50:20.400Z,18688.00
2024-05-09T05:51:09.899Z,18784.00
2024-05-09T05:52:09.647Z,18816.00
2024-05-09T05:53:10.330Z,18848.00
2024-05-09T05:54:09.599Z,18656.00
2024-05-09T05:55:09.547Z,18816.00
2024-05-09T05:56:09.558Z,18880.00
2024-05-09T05:57:10.003Z,19040.00
2024-05-09T05:58:09.438Z,18976.00
2024-05-09T05:59:10.575Z,19232.00
2024-05-09T06:00:09.890Z,19296.00
2024-05-09T06:01:09.374Z,19328.00
2024-05-09T06:02:09.380Z,19328.00
2024-05-09T06:03:10.152Z,19712.00
2024-05-09T06:04:09.420Z,19904.00
2024-05-09T06:05:09.248Z,20000.00
2024-05-09T06:06:09.225Z,19872.00
2024-05-09T06:07:09.136Z,20032.00
2024-05-09T06:08:09.454Z,20192.00
2024-05-09T06:09:09.060Z,20256.00
2024-05-09T06:10:17.030Z,20384.00
2024-05-09T06:11:09.105Z,20384.00
2024-05-09T06:12:09.149Z,20352.00
2024-05-09T06:13:08.935Z,20736.00
2024-05-09T06:14:09.018Z,21216.00
2024-05-09T06:15:08.868Z,21440.00
2024-05-09T06:16:08.834Z,21600.00
2024-05-09T06:17:08.894Z,21888.00
2024-05-09T06:18:09.283Z,22176.00
2024-05-09T06:19:08.810Z,22336.00
2024-05-09T06:20:16.629Z,22496.00
2024-05-09T06:21:08.797Z,22656.00
2024-05-09T06:22:08.662Z,22816.00
2024-05-09T06:23:09.230Z,23040.00
2024-05-09T06:24:08.572Z,23232.00
2024-05-09T06:25:08.541Z,23424.00
2024-05-09T06:26:08.562Z,23296.00
2024-05-09T06:27:08.478Z,23808.00
2024-05-09T06:28:08.462Z,24096.00
2024-05-09T06:29:08.469Z,24160.00
2024-05-09T06:30:12.170Z,24480.00
2024-05-09T06:31:08.343Z,24640.00
2024-05-09T06:32:08.442Z,24384.00
2024-05-09T06:33:08.935Z,24640.00
2024-05-09T06:34:08.326Z,24864.00
2024-05-09T06:35:08.243Z,25056.00
2024-05-09T06:36:08.186Z,25152.00
2024-05-09T06:37:08.158Z,25408.00
2024-05-09T06:38:08.191Z,25408.00
2024-05-09T06:39:08.100Z,25696.00
2024-05-09T06:40:10.004Z,26208.00
2024-05-09T06:41:08.056Z,26528.00
2024-05-09T06:42:07.993Z,26848.00
2024-05-09T06:43:07.965Z,27264.00
2024-05-09T06:44:07.987Z,27552.00
2024-05-09T06:45:07.912Z,27744.00
2024-05-09T06:46:07.866Z,28096.00
2024-05-09T06:47:08.067Z,28544.00
2024-05-09T06:48:08.117Z,28928.00
2024-05-09T06:49:07.991Z,29088.00
2024-05-09T06:50:13.350Z,29248.00
2024-05-09T06:51:07.731Z,29536.00
2024-05-09T06:52:07.677Z,30048.00
2024-05-09T06:53:07.797Z,30240.00
2024-05-09T06:54:07.611Z,30656.00
2024-05-09T06:55:07.578Z,31168.00
2024-05-09T06:56:07.646Z,31392.00
2024-05-09T06:57:07.520Z,31904.00
2024-05-09T06:58:07.487Z,32416.00
2024-05-09T06:59:07.479Z,32768.00
2024-05-09T07:00:10.313Z,33376.00
2024-05-09T07:01:07.417Z,33920.00
2024-05-09T07:02:07.543Z,34368.00
2024-05-09T07:03:07.560Z,34720.00
2024-05-09T07:04:07.499Z,35328.00
2024-05-09T07:05:07.489Z,35776.00
2024-05-09T07:06:07.269Z,36384.00
2024-05-09T07:07:07.227Z,37056.00
2024-05-09T07:08:07.243Z,37664.00
2024-05-09T07:09:07.155Z,38304.00
2024-05-09T07:10:10.022Z,39008.00
2024-05-09T07:11:07.164Z,39808.00
2024-05-09T07:12:07.236Z,40512.00
2024-05-09T07:13:07.043Z,41184.00
2024-05-09T07:14:07.066Z,42048.00
2024-05-09T07:15:06.953Z,42880.00
2024-05-09T07:16:06.930Z,43968.00
2024-05-09T07:17:07.001Z,44704.00
2024-05-09T07:18:06.974Z,45024.00
2024-05-09T07:19:07.030Z,45856.00
2024-05-09T07:20:09.121Z,45728.00
2024-05-09T07:21:06.821Z,47168.00
2024-05-09T07:22:06.732Z,47616.00
2024-05-09T07:23:06.730Z,48768.00
2024-05-09T07:24:06.706Z,49568.00
2024-05-09T07:25:06.653Z,49920.00
2024-05-09T07:26:06.646Z,50304.00
2024-05-09T07:27:06.624Z,51648.00
2024-05-09T07:28:06.549Z,52288.00
2024-05-09T07:29:06.528Z,53120.00
2024-05-09T07:30:07.421Z,53760.00
2024-05-09T07:31:06.469Z,54208.00
2024-05-09T07:32:14.153Z,54880.00
2024-05-09T07:33:06.749Z,54720.00
2024-05-09T07:34:06.418Z,56992.00
2024-05-09T07:35:06.390Z,58048.00
2024-05-09T07:36:06.378Z,58048.00
2024-05-09T07:37:06.287Z,58848.00
2024-05-09T07:38:06.269Z,59072.00
2024-05-09T07:39:06.263Z,59744.00
2024-05-09T07:40:07.651Z,60096.00
2024-05-09T07:41:06.180Z,59456.00
2024-05-09T07:42:06.136Z,61024.00
2024-05-09T07:43:06.089Z,61856.00
2024-05-09T07:44:06.119Z,62048.00
2024-05-09T07:45:21.572Z,63072.00
2024-05-09T07:47:04.527Z,64224.00
2024-05-09T07:48:14.429Z,64160.00
2024-05-09T07:50:55.904Z,64928.00
2024-05-09T07:53:29.806Z,66144.00
2024-05-09T07:53:37.819Z,65888.00
2024-05-09T07:54:13.981Z,65632.00
2024-05-09T07:55:14.576Z,66464.00
2024-05-09T07:56:05.969Z,66592.00
2024-05-09T07:57:05.716Z,67072.00
2024-05-09T07:58:05.751Z,67008.00
2024-05-09T07:59:06.248Z,67584.00
2024-05-09T08:00:06.671Z,68480.00
2024-05-09T08:01:05.844Z,68992.00
2024-05-09T08:02:05.799Z,68480.00
2024-05-09T08:03:05.572Z,67264.00
2024-05-09T08:04:05.557Z,68480.00
2024-05-09T08:05:05.637Z,68896.00
2024-05-09T08:06:05.373Z,69536.00
2024-05-09T08:07:05.406Z,70144.00
2024-05-09T08:08:05.334Z,70528.00
2024-05-09T08:09:10.669Z,70272.00
2024-05-09T08:10:06.495Z,70944.00
2024-05-09T08:11:05.316Z,71840.00
2024-05-09T08:12:26.593Z,71904.00
2024-05-09T08:13:06.412Z,71776.00
2024-05-09T08:14:16.947Z,72512.00
2024-05-09T08:15:05.830Z,73984.00
2024-05-09T10:26:23.513Z,86144.00
2024-05-09T10:27:22.605Z,70304.00
2024-05-09T10:28:22.625Z,71776.00
2024-05-09T10:29:22.545Z,24320.00
2024-05-09T10:43:08.207Z,80640.00
2024-05-09T10:44:07.984Z,80448.00
2024-05-09T10:45:07.957Z,80512.00
2024-05-09T10:46:08.102Z,79648.00
2024-05-09T10:47:07.948Z,76032.00
2024-05-09T10:48:08.046Z,35168.00
2024-05-09T10:49:08.180Z,38240.00
2024-05-09T10:50:12.749Z,79136.00
2024-05-09T10:51:07.779Z,78272.00
2024-05-09T10:52:07.818Z,79584.00
2024-05-09T10:53:07.728Z,81600.00
2024-05-09T10:54:07.720Z,82048.00
2024-05-09T10:55:07.734Z,83040.00
2024-05-09T10:56:07.650Z,82624.00
2024-05-09T10:57:07.617Z,82592.00
2024-05-09T10:58:07.670Z,82560.00
2024-05-09T10:59:07.566Z,81632.00
2024-05-09T11:00:12.747Z,80512.00
2024-05-09T11:01:08.513Z,80768.00
2024-05-09T11:02:07.781Z,81600.00
2024-05-09T11:03:07.527Z,80448.00
2024-05-09T11:04:07.574Z,81344.00
2024-05-09T11:05:07.479Z,81856.00
2024-05-09T11:06:07.785Z,80768.00
2024-05-09T11:07:07.402Z,79232.00
2024-05-09T11:08:07.347Z,79840.00
2024-05-09T11:09:07.294Z,78624.00
2024-05-09T11:10:12.253Z,77600.00
2024-05-09T11:11:08.482Z,75840.00
2024-05-09T11:12:07.384Z,32192.00
2024-05-09T11:21:14.131Z,24544.00
2024-05-09T11:22:13.792Z,21344.00
2024-05-09T11:23:13.803Z,20608.00
2024-05-09T11:24:13.717Z,19936.00
2024-05-09T11:25:13.748Z,18528.00
2024-05-09T11:26:13.682Z,17236.00
2024-05-09T11:27:13.637Z,16416.00
2024-05-09T11:28:13.712Z,15372.00
2024-05-09T11:29:15.037Z,14760.00
2024-05-09T11:30:20.875Z,15024.00
2024-05-09T11:31:13.575Z,15164.00
2024-05-09T11:32:13.594Z,14652.00
2024-05-09T11:33:13.536Z,15148.00
2024-05-09T11:34:13.466Z,15664.00
2024-05-09T11:35:13.421Z,15552.00
2024-05-09T11:36:13.357Z,15696.00
2024-05-09T11:37:13.485Z,15640.00
2024-05-09T11:38:13.291Z,15568.00
2024-05-09T11:39:13.262Z,15804.00
2024-05-09T11:40:21.138Z,16044.00
2024-05-09T11:41:13.214Z,16544.00
2024-05-09T11:42:13.215Z,18688.00
2024-05-09T11:43:13.170Z,25440.00
2024-05-09T11:44:13.155Z,43040.00
2024-05-09T11:45:13.069Z,32480.00
2024-05-09T11:46:13.223Z,70912.00
2024-05-09T11:47:13.071Z,69088.00
2024-05-09T11:48:13.167Z,70464.00
2024-05-09T11:49:13.062Z,69280.00
2024-05-09T11:50:19.151Z,45280.00
2024-05-09T11:51:12.880Z,31264.00
2024-05-09T11:52:13.004Z,57504.00
2024-05-09T11:53:12.857Z,63296.00
2024-05-09T11:54:12.792Z,67296.00
2024-05-09T11:55:12.951Z,77760.00
2024-05-09T11:56:12.716Z,79072.00
2024-05-09T11:57:12.700Z,79744.00
2024-05-09T11:58:12.825Z,78944.00
2024-05-09T11:59:12.648Z,82048.00
2024-05-09T12:00:18.224Z,83456.00
2024-05-09T12:01:12.657Z,78080.00
2024-05-09T12:02:12.750Z,77728.00
2024-05-09T12:03:12.579Z,70080.00
2024-05-09T12:04:12.653Z,82176.00
2024-05-09T12:05:12.549Z,80512.00
2024-05-09T12:06:12.479Z,79648.00
2024-05-09T12:07:13.076Z,78880.00
